Time;durP1;ratioP1;P1;durP2;ratioP2;P2;SDS_P1;SDS_P2;PMS_P1;PMS_P2;Temp;Humidity;BMP_temperature;BMP_pressure;BME280_temperature;BME280_humidity;BME280_pressure;Samples;Min_cycle;Max_cycle;Signal;HPM_P1;HPM_P2
2021/10/29 00:00:05;;;;;;;29.00;18.25;;;10.20;91.90;;;;;;5052791;28;20036;-73
2021/10/29 00:02:31;;;;;;;20.70;12.82;;;10.20;92.10;;;;;;5053896;28;20021;-74
2021/10/29 00:04:58;;;;;;;24.95;16.27;;;10.20;92.20;;;;;;5037334;28;20040;-73
2021/10/29 00:07:24;;;;;;;26.67;17.00;;;10.20;92.20;;;;;;5053168;28;20029;-73
2021/10/29 00:09:49;;;;;;;23.15;15.27;;;10.20;92.10;;;;;;5052379;28;20021;-73
2021/10/29 00:12:16;;;;;;;30.63;19.60;;;10.20;92.10;;;;;;5052577;28;20032;-73
2021/10/29 00:14:42;;;;;;;24.02;16.08;;;10.20;92.00;;;;;;5034609;28;20523;-73
2021/10/29 00:17:08;;;;;;;27.65;16.85;;;10.20;91.90;;;;;;5052505;28;20056;-73
2021/10/29 00:19:34;;;;;;;23.63;15.85;;;10.20;91.90;;;;;;5052227;28;20187;-73
2021/10/29 00:22:00;;;;;;;24.02;16.77;;;10.20;92.00;;;;;;5034954;28;20472;-73
2021/10/29 00:24:25;;;;;;;26.10;17.08;;;10.10;91.90;;;;;;5052769;28;20083;-72
2021/10/29 00:26:51;;;;;;;22.50;15.02;;;10.10;91.90;;;;;;5053515;28;20029;-73
2021/10/29 00:29:17;;;;;;;26.30;17.70;;;10.20;91.70;;;;;;5073986;28;20017;-73
2021/10/29 00:31:43;;;;;;;23.45;15.43;;;10.20;91.70;;;;;;5059587;28;20025;-73
2021/10/29 00:34:08;;;;;;;33.53;17.80;;;10.10;91.60;;;;;;5051333;28;20118;-73
2021/10/29 00:36:35;;;;;;;29.40;17.52;;;10.20;91.60;;;;;;5034283;28;20025;-73
2021/10/29 00:39:01;;;;;;;24.00;15.25;;;10.20;91.60;;;;;;5051672;28;20123;-73
2021/10/29 00:41:27;;;;;;;26.20;18.13;;;10.20;91.60;;;;;;5052186;28;20052;-73
2021/10/29 00:43:56;;;;;;;17.85;11.93;;;10.20;91.70;;;;;;5034015;28;20454;-73
2021/10/29 00:46:22;;;;;;;19.17;14.18;;;10.20;91.90;;;;;;5051922;28;20029;-73
2021/10/29 00:48:48;;;;;;;23.05;15.68;;;10.20;92.00;;;;;;5051554;28;20051;-71
2021/10/29 00:51:16;;;;;;;25.65;16.95;;;10.20;91.90;;;;;;5038042;28;20449;-73
2021/10/29 00:53:42;;;;;;;22.45;14.30;;;10.20;91.90;;;;;;5055784;28;20416;-73
2021/10/29 00:56:08;;;;;;;23.05;14.35;;;10.20;91.90;;;;;;5056437;28;20359;-73
2021/10/29 00:58:33;;;;;;;28.38;17.35;;;10.20;92.10;;;;;;5037963;28;20075;-73
2021/10/29 01:00:59;;;;;;;20.27;13.10;;;10.20;92.20;;;;;;5055960;28;20021;-72
2021/10/29 01:03:25;;;;;;;21.08;13.88;;;10.20;92.60;;;;;;5038251;28;20060;-73
2021/10/29 01:05:50;;;;;;;29.40;18.20;;;10.20;92.30;;;;;;5038366;28;20112;-73
2021/10/29 01:08:16;;;;;;;29.23;18.27;;;10.20;91.90;;;;;;5057005;28;20057;-73
2021/10/29 01:10:42;;;;;;;26.98;17.23;;;10.30;91.70;;;;;;5056287;28;20028;-73
2021/10/29 01:13:07;;;;;;;32.53;17.98;;;10.20;91.70;;;;;;5056787;28;20021;-74
2021/10/29 01:15:33;;;;;;;25.27;17.05;;;10.20;91.70;;;;;;5037879;28;20373;-73
2021/10/29 01:17:59;;;;;;;26.35;16.33;;;10.20;91.80;;;;;;5055556;28;20024;-73
2021/10/29 01:20:25;;;;;;;20.80;13.35;;;10.20;92.00;;;;;;5037965;28;20029;-73
2021/10/29 01:22:52;;;;;;;25.38;17.73;;;10.20;91.90;;;;;;5055504;28;20032;-73
2021/10/29 01:25:19;;;;;;;25.67;16.67;;;10.20;91.90;;;;;;5037566;28;20025;-73
2021/10/29 01:27:44;;;;;;;17.77;12.27;;;10.10;91.70;;;;;;5055253;28;20032;-73
2021/10/29 01:30:11;;;;;;;19.73;13.18;;;10.10;92.00;;;;;;5037384;28;20025;-74
2021/10/29 01:32:37;;;;;;;24.88;16.35;;;10.00;92.00;;;;;;5055830;28;20021;-73
2021/10/29 01:35:03;;;;;;;28.50;17.45;;;10.10;92.00;;;;;;5055271;28;20037;-73
2021/10/29 01:37:29;;;;;;;18.15;12.02;;;10.10;91.90;;;;;;5055393;28;20018;-72
2021/10/29 01:39:55;;;;;;;18.20;12.10;;;10.10;92.20;;;;;;5037194;28;20100;-72
2021/10/29 01:42:20;;;;;;;21.85;13.50;;;10.00;92.30;;;;;;5055358;28;20120;-73
2021/10/29 01:44:47;;;;;;;24.33;15.55;;;10.00;92.10;;;;;;5037157;28;20539;-73
2021/10/29 01:47:13;;;;;;;24.70;16.38;;;10.00;92.00;;;;;;5055309;28;20378;-73
2021/10/29 01:49:40;;;;;;;28.50;15.32;;;10.00;91.90;;;;;;5037822;28;20350;-73
2021/10/29 01:52:09;;;;;;;30.17;18.13;;;10.00;91.90;;;;;;5055288;28;20059;-73
2021/10/29 01:54:35;;;;;;;21.75;12.95;;;10.00;91.90;;;;;;5037645;28;20120;-73
2021/10/29 01:57:01;;;;;;;17.67;11.27;;;10.00;92.00;;;;;;5055455;28;20108;-72
2021/10/29 01:59:27;;;;;;;22.27;14.57;;;10.00;92.10;;;;;;5036991;28;20476;-73
2021/10/29 02:01:53;;;;;;;30.40;17.55;;;10.00;92.10;;;;;;5054865;28;20025;-72
2021/10/29 02:04:19;;;;;;;23.70;15.73;;;10.00;92.00;;;;;;5055080;28;20028;-72
2021/10/29 02:06:45;;;;;;;20.00;12.70;;;9.90;92.00;;;;;;5056031;28;20117;-72
2021/10/29 02:09:11;;;;;;;22.67;11.35;;;10.00;92.10;;;;;;5040565;28;20503;-72
2021/10/29 02:11:38;;;;;;;23.85;15.38;;;10.00;92.20;;;;;;5055094;28;20031;-73
2021/10/29 02:14:04;;;;;;;24.67;14.98;;;10.00;92.20;;;;;;5055142;28;20021;-72
2021/10/29 02:16:29;;;;;;;21.92;14.20;;;10.00;92.10;;;;;;5055645;28;20446;-73
2021/10/29 02:18:55;;;;;;;22.38;15.00;;;10.00;91.90;;;;;;5073097;28;20028;-73
2021/10/29 02:21:21;;;;;;;22.88;14.50;;;10.00;91.90;;;;;;5057631;28;20021;-73
2021/10/29 02:23:46;;;;;;;21.58;14.48;;;10.00;91.80;;;;;;5058779;28;20032;-74
2021/10/29 02:26:12;;;;;;;23.45;14.05;;;10.00;91.90;;;;;;5054322;28;20036;-73
2021/10/29 02:28:38;;;;;;;23.80;15.38;;;10.00;91.90;;;;;;5036737;28;20104;-73
2021/10/29 02:31:03;;;;;;;20.83;13.63;;;10.00;91.80;;;;;;5053987;28;20576;-73
2021/10/29 02:33:29;;;;;;;18.05;11.48;;;9.90;91.70;;;;;;5054363;28;20040;-73
2021/10/29 02:35:55;;;;;;;20.35;12.52;;;9.90;91.80;;;;;;5054026;28;20180;-73
2021/10/29 02:38:21;;;;;;;24.13;15.82;;;10.00;91.90;;;;;;5035927;28;20035;-73
2021/10/29 02:40:46;;;;;;;17.52;11.55;;;10.00;91.70;;;;;;5054220;28;20021;-73
2021/10/29 02:43:12;;;;;;;20.70;13.25;;;10.00;91.70;;;;;;5054423;28;20474;-73
2021/10/29 02:45:38;;;;;;;15.73;10.50;;;10.00;91.80;;;;;;5053900;28;20033;-73
2021/10/29 02:48:05;;;;;;;20.27;12.20;;;10.00;91.80;;;;;;5053906;28;20051;-73
2021/10/29 02:50:31;;;;;;;17.20;10.65;;;10.00;91.90;;;;;;5053846;28;20432;-73
2021/10/29 02:52:57;;;;;;;20.17;13.32;;;10.00;92.00;;;;;;5053903;28;20017;-72
2021/10/29 02:55:22;;;;;;;19.35;12.25;;;10.00;91.90;;;;;;5054123;28;20059;-74
2021/10/29 02:57:48;;;;;;;16.92;10.07;;;10.10;92.10;;;;;;5036222;28;20033;-74
2021/10/29 03:00:16;;;;;;;17.40;11.85;;;10.00;92.00;;;;;;5055022;28;20027;-74
2021/10/29 03:02:43;;;;;;;15.23;9.20;;;10.00;92.00;;;;;;5054578;28;20025;-74
2021/10/29 03:05:09;;;;;;;17.15;11.02;;;10.10;92.10;;;;;;5053673;28;20029;-73
2021/10/29 03:07:35;;;;;;;13.52;8.55;;;10.10;92.30;;;;;;5053411;28;20056;-73
2021/10/29 03:10:02;;;;;;;13.68;9.90;;;10.20;92.60;;;;;;5053477;28;20040;-72
2021/10/29 03:12:28;;;;;;;14.93;10.05;;;10.20;92.80;;;;;;5053072;28;20450;-73
2021/10/29 03:14:54;;;;;;;12.10;7.82;;;10.30;92.70;;;;;;5053693;28;20040;-73
2021/10/29 03:17:19;;;;;;;17.55;11.07;;;10.30;92.70;;;;;;5053556;28;20303;-72
2021/10/29 03:19:45;;;;;;;21.58;13.93;;;10.30;92.40;;;;;;5053630;28;20017;-73
2021/10/29 03:22:10;;;;;;;15.98;10.18;;;10.30;92.20;;;;;;5035500;28;20040;-74
2021/10/29 03:24:36;;;;;;;16.48;11.57;;;10.30;92.10;;;;;;5053195;28;20032;-74
2021/10/29 03:27:02;;;;;;;15.77;10.88;;;10.30;92.00;;;;;;5053112;28;20057;-73
2021/10/29 03:29:28;;;;;;;16.52;11.43;;;10.30;92.00;;;;;;5053263;28;20119;-73
2021/10/29 03:31:53;;;;;;;15.15;9.77;;;10.30;91.90;;;;;;5052984;28;20053;-74
2021/10/29 03:34:19;;;;;;;19.70;12.68;;;10.30;92.10;;;;;;5053236;28;20515;-72
2021/10/29 03:36:45;;;;;;;17.85;10.98;;;10.30;91.90;;;;;;5053033;28;20031;-73
2021/10/29 03:39:37;;;;;;;21.52;14.00;;;10.30;92.00;;;;;;5052909;28;20024;-73
2021/10/29 03:41:59;;;;;;;19.25;11.48;;;10.20;92.00;;;;;;5052037;28;20039;-73
2021/10/29 03:46:54;;;;;;;21.50;13.80;;;10.20;92.30;;;;;;5053187;28;20044;-74
2021/10/29 03:49:30;;;;;;;14.27;8.95;;;10.20;92.20;;;;;;5035808;28;20020;-73
2021/10/29 03:52:07;;;;;;;19.30;12.93;;;10.20;92.20;;;;;;5054151;28;20028;-74
2021/10/29 03:54:34;;;;;;;22.60;14.43;;;10.20;92.20;;;;;;5053488;28;20032;-74
2021/10/29 03:59:25;;;;;;;16.90;11.82;;;10.20;91.50;;;;;;5052764;28;20413;-74
2021/10/29 04:01:51;;;;;;;17.20;10.23;;;10.20;91.70;;;;;;5034754;28;20057;-73
2021/10/29 04:04:17;;;;;;;15.00;9.85;;;10.20;92.10;;;;;;5035101;28;20021;-72
2021/10/29 04:06:43;;;;;;;16.38;9.38;;;10.20;92.10;;;;;;5035383;28;20021;-73
2021/10/29 04:09:08;;;;;;;16.45;10.73;;;10.20;92.10;;;;;;5070046;28;20082;-72
2021/10/29 04:11:38;;;;;;;16.33;9.52;;;10.30;92.60;;;;;;5058071;28;20037;-73
2021/10/29 04:14:06;;;;;;;21.95;13.35;;;10.30;92.40;;;;;;5072439;28;20055;-73
2021/10/29 04:16:38;;;;;;;11.85;8.32;;;10.30;92.20;;;;;;5052713;28;20082;-73
2021/10/29 04:19:05;;;;;;;20.95;13.82;;;10.30;92.30;;;;;;5055462;28;20024;-74
2021/10/29 04:21:31;;;;;;;21.55;12.00;;;10.30;92.00;;;;;;5053587;28;20025;-74
2021/10/29 04:23:57;;;;;;;19.55;11.90;;;10.20;91.90;;;;;;5051573;28;20028;-74
2021/10/29 04:26:24;;;;;;;23.63;14.35;;;10.30;92.10;;;;;;5052455;28;20037;-74
2021/10/29 04:28:55;;;;;;;15.65;11.32;;;10.20;92.30;;;;;;5052780;28;20017;-73
2021/10/29 04:31:24;;;;;;;14.32;9.93;;;10.20;92.30;;;;;;5038965;28;20423;-72
2021/10/29 04:33:51;;;;;;;19.00;12.32;;;10.20;92.20;;;;;;5075902;28;20040;-72
2021/10/29 04:36:18;;;;;;;15.75;11.48;;;10.30;92.00;;;;;;5067424;28;20024;-73
2021/10/29 04:38:45;;;;;;;12.25;8.20;;;10.30;91.90;;;;;;5052534;28;20025;-73
2021/10/29 04:41:10;;;;;;;17.73;10.60;;;10.20;92.10;;;;;;5051908;28;20036;-73
2021/10/29 04:43:38;;;;;;;19.42;11.40;;;10.20;92.20;;;;;;5052024;28;20378;-74
2021/10/29 04:46:04;;;;;;;21.25;13.43;;;10.20;92.00;;;;;;5052133;28;20017;-72
2021/10/29 04:48:30;;;;;;;11.70;8.05;;;10.20;92.00;;;;;;5034696;28;20122;-74
2021/10/29 04:50:56;;;;;;;23.55;13.23;;;10.20;92.20;;;;;;5034902;28;20462;-73
2021/10/29 04:53:21;;;;;;;18.83;9.80;;;10.30;92.30;;;;;;5053847;28;20029;-73
2021/10/29 04:55:47;;;;;;;15.20;9.88;;;10.30;92.20;;;;;;5053147;28;20032;-73
2021/10/29 04:58:13;;;;;;;18.38;13.13;;;10.30;92.00;;;;;;5052464;28;20064;-74
2021/10/29 05:00:38;;;;;;;19.63;12.75;;;10.30;91.90;;;;;;5052913;28;20025;-74
2021/10/29 05:03:06;;;;;;;14.68;9.60;;;10.30;91.90;;;;;;5053438;28;20430;-73
2021/10/29 05:05:34;;;;;;;11.45;7.18;;;10.30;92.30;;;;;;5053686;28;20557;-73
2021/10/29 05:08:00;;;;;;;15.85;10.40;;;10.40;92.60;;;;;;5052002;28;20239;-73
2021/10/29 05:10:25;;;;;;;20.88;12.57;;;10.40;92.10;;;;;;5052141;28;20172;-73
2021/10/29 05:12:53;;;;;;;18.58;10.63;;;10.40;92.00;;;;;;5034044;28;20021;-74
2021/10/29 05:15:19;;;;;;;17.13;9.82;;;10.40;92.30;;;;;;5051738;28;20025;-74
2021/10/29 05:17:47;;;;;;;20.15;11.15;;;10.40;92.20;;;;;;5051964;28;20032;-74
2021/10/29 05:20:16;;;;;;;24.92;14.23;;;10.40;92.70;;;;;;5051738;28;20017;-73
2021/10/29 05:22:43;;;;;;;20.43;11.73;;;10.40;92.60;;;;;;5033955;28;20013;-72
2021/10/29 05:25:09;;;;;;;18.77;12.55;;;10.40;92.50;;;;;;5051783;28;20025;-73
2021/10/29 05:27:36;;;;;;;19.63;11.88;;;10.40;92.10;;;;;;5033981;28;20021;-73
2021/10/29 05:30:07;;;;;;;13.80;8.40;;;10.40;92.00;;;;;;5051641;28;20035;-73
2021/10/29 05:32:33;;;;;;;15.85;10.38;;;10.40;92.60;;;;;;5033857;28;20128;-73
2021/10/29 05:35:00;;;;;;;16.95;10.48;;;10.40;92.50;;;;;;5033683;28;20466;-73
2021/10/29 05:37:29;;;;;;;18.83;11.68;;;10.40;92.70;;;;;;5055564;28;20090;-73
2021/10/29 05:39:55;;;;;;;12.18;8.38;;;10.40;92.60;;;;;;5055290;28;20434;-73
2021/10/29 05:42:21;;;;;;;13.95;9.75;;;10.40;92.60;;;;;;5055930;28;20032;-73
2021/10/29 05:44:46;;;;;;;17.42;10.88;;;10.50;92.80;;;;;;5055508;28;20029;-73
2021/10/29 05:47:12;;;;;;;17.85;11.82;;;10.40;92.20;;;;;;5037633;28;20497;-73
2021/10/29 05:49:38;;;;;;;19.02;12.35;;;10.40;92.50;;;;;;5056069;28;20480;-72
2021/10/29 05:52:05;;;;;;;18.50;12.85;;;10.40;92.10;;;;;;5055480;28;20025;-74
2021/10/29 05:57:04;;;;;;;18.08;11.32;;;10.40;91.60;;;;;;5056819;28;20037;-73
2021/10/29 05:59:33;;;;;;;;;;;10.30;91.60;;;;;;5057450;28;20009;-74
2021/10/29 06:01:59;;;;;;;22.55;13.50;;;10.30;91.90;;;;;;5063946;28;19905;-73
2021/10/29 06:04:24;;;;;;;15.68;9.73;;;10.30;92.30;;;;;;5052897;28;20043;-74
2021/10/29 06:06:52;;;;;;;23.80;14.13;;;10.30;92.40;;;;;;5037251;28;20457;-73
2021/10/29 06:09:18;;;;;;;20.25;12.75;;;10.30;92.10;;;;;;5054573;28;20119;-73
2021/10/29 06:11:44;;;;;;;18.38;13.00;;;10.30;92.00;;;;;;5054586;28;20040;-74
2021/10/29 06:14:09;;;;;;;20.13;13.15;;;10.30;92.40;;;;;;5036892;28;20052;-73
2021/10/29 06:16:35;;;;;;;16.13;10.25;;;10.30;92.30;;;;;;5059202;28;20032;-74
2021/10/29 06:19:01;;;;;;;20.48;13.52;;;10.30;92.30;;;;;;5055071;28;20079;-74
2021/10/29 06:21:38;;;;;;;15.18;9.30;;;10.20;92.00;;;;;;5037077;28;20481;-73
2021/10/29 06:24:09;;;;;;;14.57;9.45;;;10.20;92.70;;;;;;5036661;28;20093;-74
2021/10/29 06:26:52;;;;;;;;;;;10.20;92.80;;;;;;5037142;28;20087;-74
2021/10/29 06:29:17;;;;;;;20.27;13.43;;;10.30;93.40;;;;;;5054936;28;19911;-73
2021/10/29 06:31:43;;;;;;;18.63;11.80;;;10.20;92.40;;;;;;5055259;28;20125;-74
2021/10/29 06:34:12;;;;;;;17.08;10.52;;;10.30;93.00;;;;;;5055917;28;20028;-73
2021/10/29 06:36:39;;;;;;;13.07;8.15;;;10.30;92.60;;;;;;5037709;28;20031;-74
2021/10/29 06:39:06;;;;;;;16.70;10.35;;;10.30;92.80;;;;;;5055187;28;20409;-72
2021/10/29 06:41:35;;;;;;;18.40;12.77;;;10.30;92.50;;;;;;5054437;28;20017;-74
2021/10/29 06:46:46;;;;;;;19.92;12.45;;;10.30;92.00;;;;;;5054597;28;20041;-73
2021/10/29 06:52:07;;;;;;;17.42;10.57;;;10.40;92.40;;;;;;5055942;28;20036;-74
2021/10/29 07:41:05;;;;;;;12.98;8.18;;;15.40;73.60;;;;;;5053679;28;20125;-74
2021/10/29 07:46:01;;;;;;;14.60;8.45;;;15.90;74.10;;;;;;5054029;28;20084;-74
2021/10/29 07:48:29;;;;;;;8.45;4.38;;;16.10;71.80;;;;;;5068852;28;20017;-72
2021/10/29 07:50:55;;;;;;;9.57;6.38;;;16.40;74.10;;;;;;5040262;28;20032;-74
2021/10/29 07:53:21;;;;;;;13.00;9.18;;;16.50;73.20;;;;;;5075663;28;20021;-72
2021/10/29 07:55:47;;;;;;;11.30;5.85;;;16.70;69.90;;;;;;5053873;28;20091;-73
2021/10/29 07:58:14;;;;;;;9.48;6.50;;;17.00;70.30;;;;;;5035775;28;20132;-73
2021/10/29 08:00:39;;;;;;;15.52;9.27;;;17.30;68.80;;;;;;5035255;28;20029;-74
2021/10/29 08:03:07;;;;;;;10.88;7.60;;;17.60;68.60;;;;;;5034912;28;20499;-73
2021/10/29 08:05:34;;;;;;;11.55;7.20;;;17.90;66.50;;;;;;5052516;28;20074;-73
2021/10/29 08:08:00;;;;;;;12.40;7.55;;;18.20;66.00;;;;;;5052475;28;20547;-73
2021/10/29 08:10:26;;;;;;;10.45;7.03;;;18.60;65.00;;;;;;5034713;28;20017;-74
2021/10/29 08:12:52;;;;;;;10.57;6.00;;;18.80;63.30;;;;;;5052711;28;20345;-73
2021/10/29 08:15:17;;;;;;;9.68;6.15;;;19.00;63.30;;;;;;5052107;28;20079;-74
2021/10/29 08:17:43;;;;;;;14.63;8.43;;;19.10;63.20;;;;;;5035050;28;20021;-73
2021/10/29 08:20:12;;;;;;;10.30;6.90;;;19.40;61.50;;;;;;5052829;28;20021;-74
2021/10/29 08:22:39;;;;;;;9.90;6.75;;;19.60;62.00;;;;;;5038581;28;20021;-73
2021/10/29 08:25:06;;;;;;;13.68;8.30;;;19.50;63.00;;;;;;5055592;28;20032;-73
2021/10/29 08:27:32;;;;;;;11.65;5.32;;;19.60;60.50;;;;;;5052226;28;20094;-74
2021/10/29 08:29:58;;;;;;;9.70;6.78;;;19.70;64.80;;;;;;5052225;28;20039;-74
2021/10/29 08:32:25;;;;;;;11.82;6.78;;;19.60;63.40;;;;;;5052133;28;20025;-73
2021/10/29 08:34:51;;;;;;;11.85;6.50;;;19.50;66.20;;;;;;5052332;28;20035;-74
2021/10/29 08:37:17;;;;;;;8.80;5.60;;;19.50;64.90;;;;;;5051952;28;20112;-74
2021/10/29 08:39:43;;;;;;;7.97;4.43;;;19.30;68.20;;;;;;5052164;28;20067;-73
2021/10/29 08:42:10;;;;;;;15.50;7.90;;;19.10;69.10;;;;;;5052618;28;20523;-74
2021/10/29 08:44:36;;;;;;;12.73;8.27;;;19.10;65.80;;;;;;5034488;28;20048;-72
2021/10/29 08:47:03;;;;;;;10.98;6.80;;;19.30;68.00;;;;;;5051961;28;20067;-74
2021/10/29 08:49:30;;;;;;;12.07;8.18;;;19.40;67.30;;;;;;5051910;28;20056;-74
2021/10/29 08:51:56;;;;;;;11.52;7.20;;;19.40;67.50;;;;;;5052161;28;20056;-73
2021/10/29 08:54:23;;;;;;;9.30;5.97;;;19.50;67.30;;;;;;5051836;28;20027;-74
2021/10/29 08:56:49;;;;;;;9.25;6.07;;;20.00;66.80;;;;;;5052274;28;20017;-74
2021/10/29 08:59:21;;;;;;;8.95;5.43;;;20.40;63.10;;;;;;5051933;28;20083;-73
2021/10/29 09:01:58;;;;;;;9.10;6.40;;;20.50;67.20;;;;;;5052112;28;20018;-73
2021/10/29 09:33:59;;;;;;;11.95;7.65;;;20.10;71.40;;;;;;5035808;28;20026;-75
2021/10/29 09:36:31;;;;;;;9.05;4.18;;;20.30;73.70;;;;;;5036209;28;20026;-74
2021/10/29 09:39:12;;;;;;;12.65;7.32;;;20.40;73.80;;;;;;5053124;28;20047;-73
2021/10/29 09:41:38;;;;;;;13.70;7.55;;;20.40;70.00;;;;;;5022705;28;20037;-73
2021/10/29 09:44:09;;;;;;;11.30;7.07;;;20.40;72.20;;;;;;5037073;28;20044;-75
2021/10/29 09:46:48;;;;;;;14.27;7.68;;;20.40;70.00;;;;;;5017910;28;20060;-74
2021/10/29 09:49:20;;;;;;;13.23;7.27;;;20.40;66.00;;;;;;5035577;28;20028;-74
2021/10/29 09:52:19;;;;;;;8.15;5.88;;;20.40;72.10;;;;;;5017353;28;20026;-74
2021/10/29 09:57:35;;;;;;;15.43;8.63;;;20.20;71.90;;;;;;5035114;28;20280;-74
2021/10/29 10:00:05;;;;;;;10.57;6.07;;;20.20;66.10;;;;;;5035331;28;20084;-74
2021/10/29 10:02:31;;;;;;;9.82;6.18;;;20.10;71.50;;;;;;5017142;28;20022;-75
2021/10/29 10:04:59;;;;;;;7.32;4.45;;;20.20;69.90;;;;;;5017136;28;20168;-75
2021/10/29 10:07:32;;;;;;;8.63;4.75;;;20.30;75.90;;;;;;5016997;28;20029;-75
2021/10/29 10:09:59;;;;;;;12.77;8.05;;;20.50;77.20;;;;;;5034985;28;20048;-72
2021/10/29 10:12:28;;;;;;;13.52;9.32;;;20.50;73.20;;;;;;5034691;28;20017;-74
2021/10/29 10:14:56;;;;;;;10.63;6.40;;;20.60;61.40;;;;;;5017175;28;20030;-74
2021/10/29 10:17:22;;;;;;;8.88;5.85;;;20.70;69.60;;;;;;5034636;28;20351;-74
2021/10/29 10:19:50;;;;;;;14.48;7.30;;;20.80;72.50;;;;;;5034770;28;20049;-75
2021/10/29 10:22:18;;;;;;;14.20;6.88;;;20.90;68.10;;;;;;5034768;28;20033;-73
2021/10/29 10:24:51;;;;;;;15.07;8.70;;;20.80;72.60;;;;;;5034810;28;20030;-74
2021/10/29 10:46:21;;;;;;;6.43;3.65;;;21.00;74.50;;;;;;5034172;28;20041;-75
2021/10/29 10:57:01;;;;;;;10.40;5.32;;;21.00;72.00;;;;;;5034594;28;20034;-75
2021/10/29 11:10:25;;;;;;;9.60;5.05;;;20.30;72.30;;;;;;5033806;28;20371;-74
2021/10/29 11:12:53;;;;;;;9.25;5.07;;;19.90;70.00;;;;;;5033963;28;20025;-74
2021/10/29 11:15:25;;;;;;;8.95;5.63;;;19.70;72.80;;;;;;5033870;28;20105;-74
2021/10/29 11:17:54;;;;;;;10.98;6.82;;;19.60;79.20;;;;;;5042303;28;20022;-74
2021/10/29 11:20:47;;;;;;;13.40;6.80;;;19.40;70.80;;;;;;5057359;28;20021;-74
2021/10/29 11:23:33;;;;;;;11.73;6.60;;;19.10;79.60;;;;;;5045083;28;20028;-76
2021/10/29 11:26:09;;;;;;;12.85;6.35;;;18.90;80.90;;;;;;5034561;28;20122;-74
2021/10/29 11:28:38;;;;;;;8.50;5.55;;;18.80;72.70;;;;;;5045961;28;20068;-75
2021/10/29 11:31:06;;;;;;;11.02;5.43;;;18.80;74.40;;;;;;5047524;28;20025;-74
2021/10/29 11:33:33;;;;;;;8.15;4.80;;;18.90;80.70;;;;;;5049295;28;20022;-75
2021/10/29 11:36:18;;;;;;;10.35;4.03;;;19.20;82.90;;;;;;5040611;28;20105;-74
2021/10/29 11:38:47;;;;;;;9.98;6.28;;;19.20;85.30;;;;;;5033448;28;20018;-75
2021/10/29 11:41:21;;;;;;;9.65;5.68;;;19.30;77.00;;;;;;5033441;28;20021;-75
2021/10/29 11:43:48;;;;;;;9.77;6.00;;;19.40;79.50;;;;;;5033478;28;20068;-74
2021/10/29 11:46:15;;;;;;;10.05;5.95;;;19.30;74.70;;;;;;5033019;28;20032;-75
2021/10/29 11:49:06;;;;;;;12.70;6.50;;;19.10;77.50;;;;;;5032985;28;20025;-74
2021/10/29 11:51:32;;;;;;;;;;;19.10;78.80;;;;;;5032854;28;20045;-74
2021/10/29 11:54:28;;;;;;;10.95;6.90;;;19.10;78.20;;;;;;5032735;28;20259;-74
2021/10/29 12:07:16;;;;;;;11.20;5.32;;;19.20;76.10;;;;;;5009595;28;20033;-75
2021/10/29 12:09:48;;;;;;;11.65;6.18;;;19.40;76.20;;;;;;5032753;28;20105;-75
2021/10/29 12:12:17;;;;;;;10.27;6.22;;;19.40;69.80;;;;;;5032527;28;20067;-75
2021/10/29 12:14:46;;;;;;;10.35;5.25;;;19.40;72.30;;;;;;5014570;28;20358;-74
2021/10/29 12:17:17;;;;;;;10.73;7.05;;;19.40;76.50;;;;;;5032492;28;20022;-74
2021/10/29 12:19:45;;;;;;;10.25;6.57;;;19.40;71.10;;;;;;5032647;28;20030;-74
2021/10/29 12:22:25;;;;;;;11.82;7.00;;;19.30;71.50;;;;;;5032734;28;20033;-74
2021/10/29 12:24:59;;;;;;;12.82;6.45;;;19.50;67.90;;;;;;5033619;28;20083;-74
2021/10/29 12:27:30;;;;;;;13.40;7.13;;;19.70;68.60;;;;;;5016157;28;20033;-74
2021/10/29 13:01:26;;;;;;;12.40;6.07;;;21.40;69.80;;;;;;5032499;28;20548;-74
2021/10/29 13:03:57;;;;;;;9.23;6.70;;;21.40;70.60;;;;;;5032497;28;20035;-74
2021/10/29 13:06:28;;;;;;;10.38;6.05;;;21.40;73.10;;;;;;5032297;28;20034;-74
2021/10/29 13:08:54;;;;;;;12.45;6.88;;;21.50;74.30;;;;;;5014470;28;20025;-74
2021/10/29 13:11:21;;;;;;;9.90;5.72;;;21.60;63.80;;;;;;5032147;28;20486;-76
2021/10/29 13:14:07;;;;;;;10.98;5.53;;;21.60;70.40;;;;;;5032157;28;20013;-74
2021/10/29 13:16:34;;;;;;;10.57;6.40;;;21.70;70.20;;;;;;5031524;28;20060;-74
2021/10/29 13:19:12;;;;;;;8.90;5.38;;;21.80;70.70;;;;;;5037995;28;20025;-75
2021/10/29 13:34:20;;;;;;;8.82;5.65;;;21.80;66.60;;;;;;5031885;28;20029;-75
2021/10/29 13:35:47;;;;;;;6.93;4.07;;;21.60;69.30;;;;;;5031853;28;20458;-76
2021/10/29 13:51:30;;;;;;;10.55;6.78;;;22.30;71.50;;;;;;5031633;28;20389;-75
2021/10/29 13:56:46;;;;;;;10.43;5.30;;;22.70;66.10;;;;;;5032282;28;20025;-73
2021/10/29 14:30:09;;;;;;;9.88;6.30;;;22.70;68.90;;;;;;5034559;28;20044;-75
2021/10/29 14:32:22;;;;;;;8.25;4.93;;;22.70;68.10;;;;;;5027853;28;20430;-74
2021/10/29 14:34:54;;;;;;;12.30;6.70;;;22.80;67.40;;;;;;5037020;28;20109;-74
2021/10/29 14:39:54;;;;;;;11.52;6.38;;;23.00;64.70;;;;;;5034080;28;20030;-73
2021/10/29 14:42:32;;;;;;;8.25;4.70;;;22.60;62.50;;;;;;5054670;28;20025;-75
2021/10/29 14:47:37;;;;;;;9.00;4.30;;;21.10;71.50;;;;;;5043687;28;20077;-74
2021/10/29 15:14:57;;;;;;;10.68;6.53;;;18.10;79.70;;;;;;5067452;28;20028;-76
2021/10/29 15:27:39;;;;;;;9.10;3.45;;;17.40;83.40;;;;;;5053702;28;20040;-75
2021/10/29 15:41:13;;;;;;;7.72;4.05;;;17.20;85.70;;;;;;5053459;28;20052;-76
2021/10/29 15:46:34;;;;;;;8.25;4.57;;;17.10;85.00;;;;;;5053124;28;20427;-75
2021/10/29 15:49:19;;;;;;;8.07;5.10;;;17.10;83.40;;;;;;5034814;28;20064;-74
2021/10/29 15:51:55;;;;;;;10.75;3.80;;;17.10;85.70;;;;;;5034909;28;20123;-75
2021/10/29 15:54:21;;;;;;;6.50;3.85;;;17.10;84.90;;;;;;5035113;28;20090;-75
2021/10/29 15:56:56;;;;;;;9.57;4.38;;;17.10;85.90;;;;;;5034761;28;20021;-75
2021/10/29 15:59:37;;;;;;;6.38;3.20;;;17.00;88.50;;;;;;5052582;28;20386;-74
2021/10/29 16:18:08;;;;;;;7.78;3.70;;;17.00;83.20;;;;;;5053453;28;20489;-77
2021/10/29 16:20:34;;;;;;;8.60;4.00;;;16.90;83.60;;;;;;5052581;28;20033;-76
2021/10/29 16:23:01;;;;;;;8.70;3.47;;;17.00;85.20;;;;;;5034751;28;20454;-77
2021/10/29 16:25:35;;;;;;;9.30;4.63;;;16.90;82.90;;;;;;5034504;28;20029;-76
2021/10/29 16:28:04;;;;;;;7.40;4.15;;;16.90;81.50;;;;;;5034357;28;20036;-76
2021/10/29 16:30:32;;;;;;;6.38;2.80;;;16.90;80.90;;;;;;5034799;28;20024;-77
2021/10/29 16:35:27;;;;;;;;;;;16.90;79.00;;;;;;5057143;28;20041;-74
2021/10/29 16:37:53;;;;;;;7.40;4.28;;;16.90;77.70;;;;;;5053836;28;19905;-74
2021/10/29 16:40:19;;;;;;;9.38;4.03;;;16.90;82.20;;;;;;5052034;28;20017;-74
2021/10/29 16:42:45;;;;;;;8.07;3.83;;;16.70;84.90;;;;;;5034185;28;20013;-74
2021/10/29 16:45:14;;;;;;;9.98;4.43;;;16.50;85.70;;;;;;5034170;28;20029;-74
2021/10/29 16:47:42;;;;;;;8.90;3.85;;;16.40;86.30;;;;;;5034548;28;20021;-74
2021/10/29 16:50:10;;;;;;;12.05;3.70;;;16.30;85.80;;;;;;5052667;28;20453;-75
2021/10/29 16:52:37;;;;;;;5.72;2.88;;;16.20;86.20;;;;;;5034728;28;20032;-74
2021/10/29 16:55:04;;;;;;;7.28;3.10;;;16.10;87.00;;;;;;5053306;28;20029;-74
2021/10/29 16:57:30;;;;;;;13.05;4.28;;;16.00;89.10;;;;;;5035089;28;20048;-73
2021/10/29 16:59:55;;;;;;;9.13;3.60;;;15.80;89.60;;;;;;5035093;28;20503;-72
2021/10/29 17:02:21;;;;;;;8.80;3.38;;;15.70;90.10;;;;;;5051198;28;20035;-73
2021/10/29 17:04:47;;;;;;;8.85;4.22;;;15.50;90.60;;;;;;5057451;28;20025;-72
2021/10/29 17:07:12;;;;;;;9.95;3.80;;;15.50;91.00;;;;;;5072841;28;20040;-74
2021/10/29 17:09:39;;;;;;;5.85;3.47;;;15.40;90.90;;;;;;5035024;28;20021;-73
2021/10/29 17:12:05;;;;;;;9.52;4.28;;;15.30;91.10;;;;;;5034164;28;20048;-74
2021/10/29 17:14:31;;;;;;;7.53;3.78;;;15.30;91.30;;;;;;5032565;28;20022;-74
2021/10/29 17:16:57;;;;;;;7.20;3.72;;;15.30;91.60;;;;;;5033291;28;20030;-73
2021/10/29 17:19:23;;;;;;;10.40;3.95;;;15.30;91.50;;;;;;5032703;28;20044;-73
2021/10/29 17:21:49;;;;;;;8.40;4.25;;;15.20;91.40;;;;;;5033288;28;20033;-73
2021/10/29 17:24:17;;;;;;;9.18;3.78;;;15.20;91.60;;;;;;5034958;28;20473;-72
2021/10/29 17:26:42;;;;;;;9.52;4.53;;;15.20;91.80;;;;;;5032451;28;20037;-73
2021/10/29 17:29:08;;;;;;;9.65;4.10;;;15.10;91.90;;;;;;5032434;28;20036;-73
2021/10/29 17:31:34;;;;;;;10.15;5.25;;;15.10;92.10;;;;;;5032477;28;20048;-73
2021/10/29 17:33:59;;;;;;;8.23;4.72;;;15.00;92.10;;;;;;5017985;28;20022;-73
2021/10/29 17:36:25;;;;;;;7.40;4.32;;;15.00;92.00;;;;;;5035503;28;20505;-73
2021/10/29 17:38:51;;;;;;;7.55;3.95;;;15.00;92.10;;;;;;5035401;28;20172;-74
2021/10/29 17:41:17;;;;;;;8.55;4.10;;;15.00;92.10;;;;;;5035360;28;20100;-74
2021/10/29 17:43:43;;;;;;;9.70;3.13;;;15.00;92.40;;;;;;5017660;28;20029;-73